sensor_id;sensor_type;location;lat;lon;timestamp;P1;durP1;ratioP1;P2;durP2;ratioP2
35795;SDS011;21916;52.428;13.302;2023-04-01T00:00:32;4.93;;;3.63;;
35795;SDS011;21916;52.428;13.302;2023-04-01T00:02:58;8.68;;;3.38;;
35795;SDS011;21916;52.428;13.302;2023-04-01T00:05:25;4.88;;;3.63;;
35795;SDS011;21916;52.428;13.302;2023-04-01T00:07:51;6.88;;;3.60;;
35795;SDS011;21916;52.428;13.302;2023-04-01T00:10:17;6.80;;;3.42;;
35795;SDS011;21916;52.428;13.302;2023-04-01T00:12:44;7.18;;;3.10;;
35795;SDS011;21916;52.428;13.302;2023-04-01T00:15:11;5.50;;;3.30;;
35795;SDS011;21916;52.428;13.302;2023-04-01T00:17:37;4.68;;;2.60;;
35795;SDS011;21916;52.428;13.302;2023-04-01T00:20:05;4.15;;;2.85;;
35795;SDS011;21916;52.428;13.302;2023-04-01T00:22:33;6.72;;;2.95;;
35795;SDS011;21916;52.428;13.302;2023-04-01T00:24:59;5.40;;;2.90;;
35795;SDS011;21916;52.428;13.302;2023-04-01T00:27:25;6.10;;;2.90;;
35795;SDS011;21916;52.428;13.302;2023-04-01T00:29:51;4.65;;;2.63;;
35795;SDS011;21916;52.428;13.302;2023-04-01T00:32:17;4.45;;;2.95;;
35795;SDS011;21916;52.428;13.302;2023-04-01T00:34:43;6.05;;;2.53;;
35795;SDS011;21916;52.428;13.302;2023-04-01T00:37:09;5.75;;;2.05;;
35795;SDS011;21916;52.428;13.302;2023-04-01T00:39:36;5.60;;;2.20;;
35795;SDS011;21916;52.428;13.302;2023-04-01T00:42:03;4.60;;;2.17;;
35795;SDS011;21916;52.428;13.302;2023-04-01T00:44:30;3.92;;;1.95;;
35795;SDS011;21916;52.428;13.302;2023-04-01T00:46:59;4.43;;;2.58;;
35795;SDS011;21916;52.428;13.302;2023-04-01T00:49:26;4.55;;;2.10;;
35795;SDS011;21916;52.428;13.302;2023-04-01T00:52:02;4.85;;;2.40;;
35795;SDS011;21916;52.428;13.302;2023-04-01T00:54:30;5.47;;;2.50;;
35795;SDS011;21916;52.428;13.302;2023-04-01T00:56:58;5.32;;;2.63;;
35795;SDS011;21916;52.428;13.302;2023-04-01T00:59:34;4.22;;;2.38;;
35795;SDS011;21916;52.428;13.302;2023-04-01T01:02:05;7.43;;;2.30;;
35795;SDS011;21916;52.428;13.302;2023-04-01T01:04:35;2.97;;;1.95;;
35795;SDS011;21916;52.428;13.302;2023-04-01T01:07:20;5.82;;;2.25;;
35795;SDS011;21916;52.428;13.302;2023-04-01T01:10:10;4.05;;;2.33;;
35795;SDS011;21916;52.428;13.302;2023-04-01T01:38:00;7.15;;;3.45;;
35795;SDS011;21916;52.428;13.302;2023-04-01T01:40:29;9.27;;;3.53;;
35795;SDS011;21916;52.428;13.302;2023-04-01T01:42:58;5.03;;;3.35;;
35795;SDS011;21916;52.428;13.302;2023-04-01T01:45:27;6.95;;;4.05;;
35795;SDS011;21916;52.428;13.302;2023-04-01T01:47:55;7.63;;;3.63;;
35795;SDS011;21916;52.428;13.302;2023-04-01T01:50:23;6.53;;;3.17;;
35795;SDS011;21916;52.428;13.302;2023-04-01T01:53:00;4.38;;;3.10;;
35795;SDS011;21916;52.428;13.302;2023-04-01T01:55:37;6.15;;;3.55;;
35795;SDS011;21916;52.428;13.302;2023-04-01T02:00:52;5.13;;;3.55;;
35795;SDS011;21916;52.428;13.302;2023-04-01T02:03:21;6.60;;;3.30;;
35795;SDS011;21916;52.428;13.302;2023-04-01T02:05:51;5.97;;;3.45;;
35795;SDS011;21916;52.428;13.302;2023-04-01T02:08:21;7.57;;;3.83;;
35795;SDS011;21916;52.428;13.302;2023-04-01T02:11:09;7.65;;;3.70;;
35795;SDS011;21916;52.428;13.302;2023-04-01T02:16:17;9.10;;;3.85;;
35795;SDS011;21916;52.428;13.302;2023-04-01T02:18:48;7.95;;;4.72;;
35795;SDS011;21916;52.428;13.302;2023-04-01T02:21:19;7.72;;;4.28;;
35795;SDS011;21916;52.428;13.302;2023-04-01T02:23:47;9.23;;;4.10;;
35795;SDS011;21916;52.428;13.302;2023-04-01T02:26:15;6.93;;;4.45;;
35795;SDS011;21916;52.428;13.302;2023-04-01T02:28:42;8.45;;;3.75;;
35795;SDS011;21916;52.428;13.302;2023-04-01T02:31:11;8.20;;;4.45;;
35795;SDS011;21916;52.428;13.302;2023-04-01T02:33:39;6.50;;;4.22;;
35795;SDS011;21916;52.428;13.302;2023-04-01T02:36:07;6.70;;;4.13;;
35795;SDS011;21916;52.428;13.302;2023-04-01T02:38:37;10.32;;;4.57;;
35795;SDS011;21916;52.428;13.302;2023-04-01T02:41:05;6.28;;;4.57;;
35795;SDS011;21916;52.428;13.302;2023-04-01T02:43:32;10.57;;;5.28;;
35795;SDS011;21916;52.428;13.302;2023-04-01T02:45:58;7.10;;;5.28;;
35795;SDS011;21916;52.428;13.302;2023-04-01T02:48:24;6.97;;;5.45;;
35795;SDS011;21916;52.428;13.302;2023-04-01T02:50:50;10.88;;;6.03;;
35795;SDS011;21916;52.428;13.302;2023-04-01T02:53:16;9.27;;;5.75;;
35795;SDS011;21916;52.428;13.302;2023-04-01T02:55:44;9.13;;;5.80;;
35795;SDS011;21916;52.428;13.302;2023-04-01T02:58:11;9.57;;;5.47;;
35795;SDS011;21916;52.428;13.302;2023-04-01T03:00:37;8.00;;;6.32;;
35795;SDS011;21916;52.428;13.302;2023-04-01T03:03:03;9.98;;;6.30;;
35795;SDS011;21916;52.428;13.302;2023-04-01T03:05:29;10.48;;;6.18;;
35795;SDS011;21916;52.428;13.302;2023-04-01T03:07:55;7.82;;;6.13;;
35795;SDS011;21916;52.428;13.302;2023-04-01T03:10:22;8.13;;;6.53;;
35795;SDS011;21916;52.428;13.302;2023-04-01T03:12:48;10.15;;;6.70;;
35795;SDS011;21916;52.428;13.302;2023-04-01T03:15:14;15.02;;;8.57;;
35795;SDS011;21916;52.428;13.302;2023-04-01T03:17:40;12.63;;;7.05;;
35795;SDS011;21916;52.428;13.302;2023-04-01T03:20:07;11.60;;;7.90;;
35795;SDS011;21916;52.428;13.302;2023-04-01T03:22:36;12.85;;;6.93;;
35795;SDS011;21916;52.428;13.302;2023-04-01T03:25:03;8.50;;;5.65;;
35795;SDS011;21916;52.428;13.302;2023-04-01T03:27:31;9.48;;;5.53;;
35795;SDS011;21916;52.428;13.302;2023-04-01T03:29:58;9.50;;;5.30;;
35795;SDS011;21916;52.428;13.302;2023-04-01T03:32:25;6.90;;;4.90;;
35795;SDS011;21916;52.428;13.302;2023-04-01T03:34:53;8.23;;;4.60;;
35795;SDS011;21916;52.428;13.302;2023-04-01T03:37:19;9.95;;;5.20;;
35795;SDS011;21916;52.428;13.302;2023-04-01T03:39:45;8.95;;;5.43;;
35795;SDS011;21916;52.428;13.302;2023-04-01T03:42:11;9.77;;;4.43;;
35795;SDS011;21916;52.428;13.302;2023-04-01T03:44:37;7.68;;;4.75;;
35795;SDS011;21916;52.428;13.302;2023-04-01T03:47:03;9.38;;;4.75;;
35795;SDS011;21916;52.428;13.302;2023-04-01T03:49:29;11.10;;;4.82;;
35795;SDS011;21916;52.428;13.302;2023-04-01T03:51:57;6.82;;;4.82;;
35795;SDS011;21916;52.428;13.302;2023-04-01T03:54:23;7.38;;;4.32;;
35795;SDS011;21916;52.428;13.302;2023-04-01T03:56:49;8.43;;;4.28;;
35795;SDS011;21916;52.428;13.302;2023-04-01T03:59:15;6.72;;;3.70;;
35795;SDS011;21916;52.428;13.302;2023-04-01T04:01:42;8.23;;;4.40;;
35795;SDS011;21916;52.428;13.302;2023-04-01T04:04:10;11.10;;;3.90;;
35795;SDS011;21916;52.428;13.302;2023-04-01T04:06:38;7.15;;;4.03;;
35795;SDS011;21916;52.428;13.302;2023-04-01T04:09:05;7.38;;;3.78;;
35795;SDS011;21916;52.428;13.302;2023-04-01T04:11:32;9.38;;;4.57;;
35795;SDS011;21916;52.428;13.302;2023-04-01T04:13:58;9.15;;;3.97;;
35795;SDS011;21916;52.428;13.302;2023-04-01T04:16:25;10.30;;;3.70;;
35795;SDS011;21916;52.428;13.302;2023-04-01T04:19:00;9.45;;;3.80;;
35795;SDS011;21916;52.428;13.302;2023-04-01T04:21:26;8.02;;;3.55;;
35795;SDS011;21916;52.428;13.302;2023-04-01T04:23:52;6.68;;;3.75;;
35795;SDS011;21916;52.428;13.302;2023-04-01T04:26:19;9.43;;;3.67;;
35795;SDS011;21916;52.428;13.302;2023-04-01T04:28:53;8.15;;;3.22;;
35795;SDS011;21916;52.428;13.302;2023-04-01T04:31:20;6.10;;;3.53;;
35795;SDS011;21916;52.428;13.302;2023-04-01T04:33:48;8.23;;;3.72;;
35795;SDS011;21916;52.428;13.302;2023-04-01T04:36:17;5.95;;;3.85;;
35795;SDS011;21916;52.428;13.302;2023-04-01T04:38:45;4.60;;;2.88;;
35795;SDS011;21916;52.428;13.302;2023-04-01T04:41:12;9.27;;;3.40;;
35795;SDS011;21916;52.428;13.302;2023-04-01T04:43:50;9.02;;;3.58;;
35795;SDS011;21916;52.428;13.302;2023-04-01T04:46:18;11.65;;;4.68;;
35795;SDS011;21916;52.428;13.302;2023-04-01T04:48:47;11.98;;;4.32;;
35795;SDS011;21916;52.428;13.302;2023-04-01T04:51:18;12.63;;;6.25;;
35795;SDS011;21916;52.428;13.302;2023-04-01T04:53:45;10.68;;;5.70;;
35795;SDS011;21916;52.428;13.302;2023-04-01T04:56:16;10.10;;;5.32;;
35795;SDS011;21916;52.428;13.302;2023-04-01T04:58:50;11.13;;;5.20;;
35795;SDS011;21916;52.428;13.302;2023-04-01T05:01:22;8.73;;;4.72;;
35795;SDS011;21916;52.428;13.302;2023-04-01T05:03:48;9.50;;;3.92;;
35795;SDS011;21916;52.428;13.302;2023-04-01T05:06:14;7.30;;;4.32;;
35795;SDS011;21916;52.428;13.302;2023-04-01T05:08:42;7.65;;;4.63;;
35795;SDS011;21916;52.428;13.302;2023-04-01T05:11:10;7.90;;;5.30;;
35795;SDS011;21916;52.428;13.302;2023-04-01T05:13:40;7.30;;;4.80;;
35795;SDS011;21916;52.428;13.302;2023-04-01T05:16:10;10.45;;;4.97;;
35795;SDS011;21916;52.428;13.302;2023-04-01T05:18:37;12.90;;;5.40;;
35795;SDS011;21916;52.428;13.302;2023-04-01T05:21:06;10.02;;;5.70;;
35795;SDS011;21916;52.428;13.302;2023-04-01T05:23:33;11.25;;;4.78;;
35795;SDS011;21916;52.428;13.302;2023-04-01T05:26:09;10.45;;;4.80;;
35795;SDS011;21916;52.428;13.302;2023-04-01T05:28:38;9.40;;;4.57;;
35795;SDS011;21916;52.428;13.302;2023-04-01T05:31:05;9.40;;;3.75;;
35795;SDS011;21916;52.428;13.302;2023-04-01T05:33:37;9.65;;;4.22;;
35795;SDS011;21916;52.428;13.302;2023-04-01T05:36:08;14.25;;;4.10;;
35795;SDS011;21916;52.428;13.302;2023-04-01T05:38:41;11.88;;;4.47;;
35795;SDS011;21916;52.428;13.302;2023-04-01T05:41:10;11.20;;;5.00;;
35795;SDS011;21916;52.428;13.302;2023-04-01T05:43:40;12.85;;;4.45;;
35795;SDS011;21916;52.428;13.302;2023-04-01T05:46:25;9.98;;;4.72;;
35795;SDS011;21916;52.428;13.302;2023-04-01T05:49:01;9.85;;;5.30;;
35795;SDS011;21916;52.428;13.302;2023-04-01T05:51:27;11.18;;;4.35;;
35795;SDS011;21916;52.428;13.302;2023-04-01T05:53:53;11.73;;;4.53;;
35795;SDS011;21916;52.428;13.302;2023-04-01T05:56:19;8.73;;;4.57;;
35795;SDS011;21916;52.428;13.302;2023-04-01T05:58:50;6.35;;;3.60;;
35795;SDS011;21916;52.428;13.302;2023-04-01T06:01:18;9.93;;;4.57;;
35795;SDS011;21916;52.428;13.302;2023-04-01T06:03:44;9.93;;;3.92;;
35795;SDS011;21916;52.428;13.302;2023-04-01T06:06:15;7.15;;;3.95;;
35795;SDS011;21916;52.428;13.302;2023-04-01T06:08:48;12.57;;;3.67;;
35795;SDS011;21916;52.428;13.302;2023-04-01T06:19:56;9.93;;;3.63;;
35795;SDS011;21916;52.428;13.302;2023-04-01T06:22:47;8.52;;;3.35;;
35795;SDS011;21916;52.428;13.302;2023-04-01T06:25:46;7.18;;;3.30;;
35795;SDS011;21916;52.428;13.302;2023-04-01T06:36:53;10.85;;;3.40;;
35795;SDS011;21916;52.428;13.302;2023-04-01T06:42:24;11.65;;;3.15;;
35795;SDS011;21916;52.428;13.302;2023-04-01T06:45:44;7.32;;;2.90;;
35795;SDS011;21916;52.428;13.302;2023-04-01T06:48:54;9.18;;;3.10;;
35795;SDS011;21916;52.428;13.302;2023-04-01T06:55:36;4.75;;;2.80;;
35795;SDS011;21916;52.428;13.302;2023-04-01T06:58:20;8.77;;;3.17;;
35795;SDS011;21916;52.428;13.302;2023-04-01T07:01:22;9.18;;;2.83;;
35795;SDS011;21916;52.428;13.302;2023-04-01T07:03:55;5.18;;;2.53;;
35795;SDS011;21916;52.428;13.302;2023-04-01T07:06:31;7.80;;;2.92;;
35795;SDS011;21916;52.428;13.302;2023-04-01T07:09:06;5.30;;;2.13;;
35795;SDS011;21916;52.428;13.302;2023-04-01T07:14:55;5.75;;;2.38;;
35795;SDS011;21916;52.428;13.302;2023-04-01T07:17:31;8.73;;;2.72;;
35795;SDS011;21916;52.428;13.302;2023-04-01T07:20:05;6.15;;;2.00;;
35795;SDS011;21916;52.428;13.302;2023-04-01T07:22:48;5.07;;;1.58;;
35795;SDS011;21916;52.428;13.302;2023-04-01T07:25:38;6.35;;;2.30;;
35795;SDS011;21916;52.428;13.302;2023-04-01T07:28:39;2.97;;;1.83;;
35795;SDS011;21916;52.428;13.302;2023-04-01T07:31:39;5.35;;;2.10;;
35795;SDS011;21916;52.428;13.302;2023-04-01T07:37:18;9.48;;;2.47;;
35795;SDS011;21916;52.428;13.302;2023-04-01T07:40:41;10.13;;;2.20;;
35795;SDS011;21916;52.428;13.302;2023-04-01T07:42:58;12.73;;;2.00;;
35795;SDS011;21916;52.428;13.302;2023-04-01T07:59:56;6.97;;;1.73;;
35795;SDS011;21916;52.428;13.302;2023-04-01T08:05:19;6.38;;;2.22;;
35795;SDS011;21916;52.428;13.302;2023-04-01T08:07:58;8.98;;;2.28;;
35795;SDS011;21916;52.428;13.302;2023-04-01T08:10:55;5.68;;;2.30;;
35795;SDS011;21916;52.428;13.302;2023-04-01T08:17:10;6.85;;;2.33;;
35795;SDS011;21916;52.428;13.302;2023-04-01T08:19:51;8.45;;;2.10;;
35795;SDS011;21916;52.428;13.302;2023-04-01T08:25:22;10.60;;;2.05;;
35795;SDS011;21916;52.428;13.302;2023-04-01T08:28:13;7.05;;;2.05;;
35795;SDS011;21916;52.428;13.302;2023-04-01T08:30:52;7.97;;;2.03;;
35795;SDS011;21916;52.428;13.302;2023-04-01T08:33:30;7.25;;;2.47;;
35795;SDS011;21916;52.428;13.302;2023-04-01T08:36:10;6.25;;;2.10;;
35795;SDS011;21916;52.428;13.302;2023-04-01T08:38:51;5.60;;;1.63;;
35795;SDS011;21916;52.428;13.302;2023-04-01T08:50:23;6.47;;;1.95;;
35795;SDS011;21916;52.428;13.302;2023-04-01T08:53:23;3.58;;;1.42;;
35795;SDS011;21916;52.428;13.302;2023-04-01T09:04:45;4.10;;;1.48;;
35795;SDS011;21916;52.428;13.302;2023-04-01T09:18:21;6.22;;;1.60;;
35795;SDS011;21916;52.428;13.302;2023-04-01T09:23:45;1.70;;;0.93;;
35795;SDS011;21916;52.428;13.302;2023-04-01T09:26:26;4.70;;;1.85;;
35795;SDS011;21916;52.428;13.302;2023-04-01T09:29:05;4.35;;;2.60;;
35795;SDS011;21916;52.428;13.302;2023-04-01T09:37:20;5.53;;;3.70;;
35795;SDS011;21916;52.428;13.302;2023-04-01T09:43:06;5.07;;;3.67;;
35795;SDS011;21916;52.428;13.302;2023-04-01T09:46:02;4.93;;;3.35;;
35795;SDS011;21916;52.428;13.302;2023-04-01T09:48:59;5.55;;;4.15;;
35795;SDS011;21916;52.428;13.302;2023-04-01T09:52:02;5.43;;;4.47;;
35795;SDS011;21916;52.428;13.302;2023-04-01T09:54:48;6.70;;;4.70;;
35795;SDS011;21916;52.428;13.302;2023-04-01T10:12:04;7.85;;;6.18;;
35795;SDS011;21916;52.428;13.302;2023-04-01T10:14:40;8.68;;;6.22;;
35795;SDS011;21916;52.428;13.302;2023-04-01T10:17:49;7.13;;;5.70;;
35795;SDS011;21916;52.428;13.302;2023-04-01T10:20:41;8.10;;;6.18;;
35795;SDS011;21916;52.428;13.302;2023-04-01T11:11:28;10.10;;;8.40;;
35795;SDS011;21916;52.428;13.302;2023-04-01T11:14:21;9.13;;;8.13;;
35795;SDS011;21916;52.428;13.302;2023-04-01T11:25:23;8.57;;;7.63;;
35795;SDS011;21916;52.428;13.302;2023-04-01T11:40:11;7.07;;;5.60;;
35795;SDS011;21916;52.428;13.302;2023-04-01T11:43:22;6.47;;;4.88;;
35795;SDS011;21916;52.428;13.302;2023-04-01T11:46:39;5.05;;;4.00;;
35795;SDS011;21916;52.428;13.302;2023-04-01T12:03:38;3.15;;;2.80;;
35795;SDS011;21916;52.428;13.302;2023-04-01T12:09:11;4.78;;;3.25;;
35795;SDS011;21916;52.428;13.302;2023-04-01T12:14:31;4.53;;;3.03;;
35795;SDS011;21916;52.428;13.302;2023-04-01T12:19:47;4.63;;;3.55;;
35795;SDS011;21916;52.428;13.302;2023-04-01T12:28:12;4.07;;;3.20;;
35795;SDS011;21916;52.428;13.302;2023-04-01T12:33:52;4.28;;;3.08;;
35795;SDS011;21916;52.428;13.302;2023-04-01T12:42:05;5.07;;;3.30;;
35795;SDS011;21916;52.428;13.302;2023-04-01T12:44:47;5.07;;;4.03;;
35795;SDS011;21916;52.428;13.302;2023-04-01T12:50:00;4.90;;;3.70;;
35795;SDS011;21916;52.428;13.302;2023-04-01T12:52:50;4.35;;;3.63;;
35795;SDS011;21916;52.428;13.302;2023-04-01T12:55:38;4.88;;;3.92;;
35795;SDS011;21916;52.428;13.302;2023-04-01T13:03:55;5.35;;;4.82;;
35795;SDS011;21916;52.428;13.302;2023-04-01T13:06:54;7.20;;;4.15;;
35795;SDS011;21916;52.428;13.302;2023-04-01T13:17:53;5.65;;;4.82;;
35795;SDS011;21916;52.428;13.302;2023-04-01T13:25:39;4.82;;;3.90;;
35795;SDS011;21916;52.428;13.302;2023-04-01T13:28:29;5.25;;;4.03;;
35795;SDS011;21916;52.428;13.302;2023-04-01T13:31:05;5.97;;;4.70;;
35795;SDS011;21916;52.428;13.302;2023-04-01T13:34:09;6.78;;;4.75;;
35795;SDS011;21916;52.428;13.302;2023-04-01T13:42:59;7.35;;;4.70;;
35795;SDS011;21916;52.428;13.302;2023-04-01T13:45:40;7.82;;;6.63;;
35795;SDS011;21916;52.428;13.302;2023-04-01T13:51:30;9.50;;;6.63;;
35795;SDS011;21916;52.428;13.302;2023-04-01T14:02:11;7.03;;;5.65;;
35795;SDS011;21916;52.428;13.302;2023-04-01T14:05:28;6.82;;;5.85;;
35795;SDS011;21916;52.428;13.302;2023-04-01T14:16:47;6.72;;;5.95;;
35795;SDS011;21916;52.428;13.302;2023-04-01T14:25:25;9.15;;;7.15;;
35795;SDS011;21916;52.428;13.302;2023-04-01T14:28:01;8.30;;;7.20;;
35795;SDS011;21916;52.428;13.302;2023-04-01T14:41:28;9.88;;;8.82;;
35795;SDS011;21916;52.428;13.302;2023-04-01T14:44:13;9.88;;;8.65;;
35795;SDS011;21916;52.428;13.302;2023-04-01T14:47:03;11.13;;;9.60;;
35795;SDS011;21916;52.428;13.302;2023-04-01T14:49:50;13.27;;;9.32;;
35795;SDS011;21916;52.428;13.302;2023-04-01T14:52:27;11.57;;;9.23;;
35795;SDS011;21916;52.428;13.302;2023-04-01T14:54:56;12.80;;;9.25;;
35795;SDS011;21916;52.428;13.302;2023-04-01T15:03:01;7.65;;;6.85;;
35795;SDS011;21916;52.428;13.302;2023-04-01T15:08:17;10.68;;;6.95;;
35795;SDS011;21916;52.428;13.302;2023-04-01T15:14:27;8.63;;;7.25;;
35795;SDS011;21916;52.428;13.302;2023-04-01T15:17:29;9.05;;;8.05;;
35795;SDS011;21916;52.428;13.302;2023-04-01T15:25:38;9.73;;;8.30;;
35795;SDS011;21916;52.428;13.302;2023-04-01T15:31:19;9.77;;;8.07;;
35795;SDS011;21916;52.428;13.302;2023-04-01T15:39:54;9.90;;;7.93;;
35795;SDS011;21916;52.428;13.302;2023-04-01T15:42:46;9.43;;;8.10;;
35795;SDS011;21916;52.428;13.302;2023-04-01T15:56:10;11.82;;;8.82;;
35795;SDS011;21916;52.428;13.302;2023-04-01T16:01:56;9.60;;;7.07;;
35795;SDS011;21916;52.428;13.302;2023-04-01T16:15:47;8.98;;;6.30;;
35795;SDS011;21916;52.428;13.302;2023-04-01T16:20:54;6.90;;;5.60;;
35795;SDS011;21916;52.428;13.302;2023-04-01T16:31:51;13.55;;;9.13;;
35795;SDS011;21916;52.428;13.302;2023-04-01T16:37:13;10.93;;;8.77;;
35795;SDS011;21916;52.428;13.302;2023-04-01T16:47:46;12.77;;;8.40;;
35795;SDS011;21916;52.428;13.302;2023-04-01T16:55:42;14.95;;;8.02;;
35795;SDS011;21916;52.428;13.302;2023-04-01T17:01:02;9.80;;;8.38;;
35795;SDS011;21916;52.428;13.302;2023-04-01T17:03:33;9.45;;;7.90;;
35795;SDS011;21916;52.428;13.302;2023-04-01T17:19:13;9.63;;;7.55;;
35795;SDS011;21916;52.428;13.302;2023-04-01T17:43:36;8.18;;;6.95;;
35795;SDS011;21916;52.428;13.302;2023-04-01T17:51:43;9.02;;;7.20;;
35795;SDS011;21916;52.428;13.302;2023-04-01T17:54:46;8.52;;;7.18;;
35795;SDS011;21916;52.428;13.302;2023-04-01T17:59:58;10.38;;;8.48;;
35795;SDS011;21916;52.428;13.302;2023-04-01T18:05:39;10.13;;;7.57;;
35795;SDS011;21916;52.428;13.302;2023-04-01T18:22:55;11.10;;;7.97;;
35795;SDS011;21916;52.428;13.302;2023-04-01T18:25:33;10.57;;;7.90;;
35795;SDS011;21916;52.428;13.302;2023-04-01T18:28:32;11.45;;;8.02;;
35795;SDS011;21916;52.428;13.302;2023-04-01T18:31:16;11.73;;;7.50;;
35795;SDS011;21916;52.428;13.302;2023-04-01T18:39:14;9.25;;;7.07;;
35795;SDS011;21916;52.428;13.302;2023-04-01T18:44:38;8.63;;;6.30;;
35795;SDS011;21916;52.428;13.302;2023-04-01T18:50:27;9.32;;;6.72;;
35795;SDS011;21916;52.428;13.302;2023-04-01T18:55:46;8.80;;;6.63;;
35795;SDS011;21916;52.428;13.302;2023-04-01T18:58:27;7.88;;;5.80;;
35795;SDS011;21916;52.428;13.302;2023-04-01T19:03:52;11.60;;;6.40;;
35795;SDS011;21916;52.428;13.302;2023-04-01T19:06:57;8.00;;;5.72;;
35795;SDS011;21916;52.428;13.302;2023-04-01T19:12:30;7.00;;;5.00;;
35795;SDS011;21916;52.428;13.302;2023-04-01T19:15:20;8.75;;;6.70;;
35795;SDS011;21916;52.428;13.302;2023-04-01T19:20:33;9.32;;;5.78;;
35795;SDS011;21916;52.428;13.302;2023-04-01T19:25:58;8.48;;;5.65;;
35795;SDS011;21916;52.428;13.302;2023-04-01T19:31:11;10.75;;;7.22;;
35795;SDS011;21916;52.428;13.302;2023-04-01T19:39:37;9.15;;;6.70;;
35795;SDS011;21916;52.428;13.302;2023-04-01T19:53:46;9.65;;;6.75;;
35795;SDS011;21916;52.428;13.302;2023-04-01T19:56:31;9.98;;;6.45;;
35795;SDS011;21916;52.428;13.302;2023-04-01T20:01:59;12.02;;;6.95;;
35795;SDS011;21916;52.428;13.302;2023-04-01T20:04:46;13.65;;;7.63;;
35795;SDS011;21916;52.428;13.302;2023-04-01T20:15:30;13.15;;;7.78;;
35795;SDS011;21916;52.428;13.302;2023-04-01T20:18:01;14.25;;;7.85;;
35795;SDS011;21916;52.428;13.302;2023-04-01T20:20:30;13.23;;;8.40;;
35795;SDS011;21916;52.428;13.302;2023-04-01T20:25:51;14.07;;;8.07;;
35795;SDS011;21916;52.428;13.302;2023-04-01T20:28:21;14.82;;;7.38;;
35795;SDS011;21916;52.428;13.302;2023-04-01T20:33:53;14.32;;;8.73;;
35795;SDS011;21916;52.428;13.302;2023-04-01T20:51:15;12.82;;;8.85;;
35795;SDS011;21916;52.428;13.302;2023-04-01T20:57:21;13.32;;;8.57;;
35795;SDS011;21916;52.428;13.302;2023-04-01T21:13:45;12.88;;;8.23;;
35795;SDS011;21916;52.428;13.302;2023-04-01T21:33:01;12.77;;;7.40;;
35795;SDS011;21916;52.428;13.302;2023-04-01T21:44:42;10.00;;;6.15;;
35795;SDS011;21916;52.428;13.302;2023-04-01T21:52:52;8.63;;;5.72;;
35795;SDS011;21916;52.428;13.302;2023-04-01T22:09:24;15.65;;;6.68;;
35795;SDS011;21916;52.428;13.302;2023-04-01T22:17:17;11.57;;;6.40;;
35795;SDS011;21916;52.428;13.302;2023-04-01T22:19:52;11.30;;;6.70;;
35795;SDS011;21916;52.428;13.302;2023-04-01T22:25:55;10.07;;;6.30;;
35795;SDS011;21916;52.428;13.302;2023-04-01T22:28:39;12.23;;;7.05;;
35795;SDS011;21916;52.428;13.302;2023-04-01T22:31:16;11.45;;;5.80;;
35795;SDS011;21916;52.428;13.302;2023-04-01T22:33:59;8.93;;;6.53;;
35795;SDS011;21916;52.428;13.302;2023-04-01T22:53:44;9.93;;;4.88;;
35795;SDS011;21916;52.428;13.302;2023-04-01T22:56:36;11.13;;;5.15;;
35795;SDS011;21916;52.428;13.302;2023-04-01T22:59:08;12.05;;;5.43;;
35795;SDS011;21916;52.428;13.302;2023-04-01T23:01:43;11.45;;;5.35;;
35795;SDS011;21916;52.428;13.302;2023-04-01T23:04:15;8.50;;;5.07;;
35795;SDS011;21916;52.428;13.302;2023-04-01T23:06:49;10.65;;;4.72;;
35795;SDS011;21916;52.428;13.302;2023-04-01T23:09:31;10.05;;;5.45;;
35795;SDS011;21916;52.428;13.302;2023-04-01T23:12:09;10.75;;;5.50;;
35795;SDS011;21916;52.428;13.302;2023-04-01T23:14:54;10.13;;;5.82;;
35795;SDS011;21916;52.428;13.302;2023-04-01T23:20:10;9.18;;;5.35;;
35795;SDS011;21916;52.428;13.302;2023-04-01T23:28:39;10.10;;;5.68;;
35795;SDS011;21916;52.428;13.302;2023-04-01T23:34:36;8.48;;;5.15;;
35795;SDS011;21916;52.428;13.302;2023-04-01T23:39:54;8.90;;;5.03;;
35795;SDS011;21916;52.428;13.302;2023-04-01T23:42:23;13.45;;;5.90;;
35795;SDS011;21916;52.428;13.302;2023-04-01T23:45:03;9.80;;;5.40;;
35795;SDS011;21916;52.428;13.302;2023-04-01T23:47:37;9.73;;;6.40;;
35795;SDS011;21916;52.428;13.302;2023-04-01T23:53:31;7.60;;;4.55;;
35795;SDS011;21916;52.428;13.302;2023-04-01T23:55:51;6.97;;;4.50;;
35795;SDS011;21916;52.428;13.302;2023-04-01T23:58:34;10.20;;;5.22;;
